Time;durP1;ratioP1;P1;durP2;ratioP2;P2;SDS_P1;SDS_P2;PMS_P1;PMS_P2;Temp;Humidity;BMP_temperature;BMP_pressure;BME280_temperature;BME280_humidity;BME280_pressure;Samples;Min_cycle;Max_cycle;Signal;HPM_P1;HPM_P2
2021/10/29 00:00:29;;;;;;;9.30;5.60;;;11.90;99.90;;;;;;5042777;28;20223;-61
2021/10/29 00:03:14;;;;;;;9.10;5.80;;;11.80;99.90;;;;;;5046056;28;20240;-61
2021/10/29 00:05:43;;;;;;;10.77;5.73;;;11.90;99.90;;;;;;5042876;28;20184;-61
2021/10/29 00:08:11;;;;;;;6.47;5.80;;;11.80;99.90;;;;;;5042849;28;20219;-61
2021/10/29 00:10:40;;;;;;;8.10;5.80;;;11.80;99.90;;;;;;5043693;28;20679;-61
2021/10/29 00:13:08;;;;;;;8.43;6.40;;;11.80;99.90;;;;;;5045235;28;20259;-60
2021/10/29 00:15:38;;;;;;;8.77;5.20;;;11.80;99.90;;;;;;5043287;28;20231;-61
2021/10/29 00:18:06;;;;;;;10.90;6.20;;;11.80;99.90;;;;;;5040594;28;20567;-60
2021/10/29 00:20:36;;;;;;;6.67;5.97;;;11.70;99.90;;;;;;5047235;28;20208;-61
2021/10/29 00:23:05;;;;;;;8.00;6.10;;;11.80;99.90;;;;;;5045215;28;20223;-61
2021/10/29 00:25:34;;;;;;;8.30;6.20;;;11.80;99.90;;;;;;5053770;28;20204;-60
2021/10/29 00:28:02;;;;;;;9.17;6.13;;;11.80;99.90;;;;;;5048025;28;20197;-60
2021/10/29 00:30:31;;;;;;;7.90;6.17;;;11.80;99.90;;;;;;5046375;28;20201;-61
2021/10/29 00:32:59;;;;;;;7.97;6.87;;;11.80;99.90;;;;;;5046076;28;20196;-61
2021/10/29 00:35:28;;;;;;;6.77;6.17;;;11.80;99.90;;;;;;5047978;28;20608;-61
2021/10/29 00:37:58;;;;;;;8.03;6.80;;;11.70;99.90;;;;;;5045178;28;20196;-61
2021/10/29 00:40:26;;;;;;;11.23;7.23;;;11.70;99.90;;;;;;5045441;28;20290;-61
2021/10/29 00:42:55;;;;;;;8.10;6.10;;;11.80;99.90;;;;;;5046106;28;20244;-61
2021/10/29 00:45:23;;;;;;;10.83;6.70;;;11.80;99.90;;;;;;5047459;28;20571;-61
2021/10/29 00:47:53;;;;;;;9.90;7.23;;;11.70;99.90;;;;;;5044057;28;20236;-61
2021/10/29 00:50:22;;;;;;;7.80;6.27;;;11.60;99.90;;;;;;5047281;28;20196;-61
2021/10/29 00:52:51;;;;;;;7.53;6.43;;;11.50;99.90;;;;;;5048411;28;20247;-61
2021/10/29 00:55:21;;;;;;;10.17;6.43;;;11.50;99.90;;;;;;5050969;28;20262;-61
2021/10/29 00:57:51;;;;;;;10.40;7.10;;;11.60;99.90;;;;;;5047807;28;20196;-61
2021/10/29 01:00:20;;;;;;;9.60;6.90;;;11.50;99.90;;;;;;5044483;28;20202;-61
2021/10/29 01:02:48;;;;;;;9.63;7.17;;;11.50;99.90;;;;;;5047563;28;20667;-61
2021/10/29 01:05:18;;;;;;;7.53;6.10;;;11.40;99.90;;;;;;5048294;28;20325;-61
2021/10/29 01:07:46;;;;;;;7.87;7.07;;;11.40;99.90;;;;;;5048914;28;20202;-61
2021/10/29 01:10:15;;;;;;;10.23;6.73;;;11.40;99.90;;;;;;5044934;28;20197;-61
2021/10/29 01:12:45;;;;;;;8.93;6.73;;;11.30;99.90;;;;;;5044450;28;20205;-61
2021/10/29 01:15:13;;;;;;;8.30;6.70;;;11.30;99.90;;;;;;5042402;28;20244;-61
2021/10/29 01:17:42;;;;;;;8.93;6.43;;;11.20;99.90;;;;;;5043777;28;20272;-61
2021/10/29 01:20:10;;;;;;;11.73;6.57;;;11.20;99.90;;;;;;5046854;28;20279;-61
2021/10/29 01:22:40;;;;;;;10.13;6.77;;;11.20;99.90;;;;;;5044837;28;20282;-61
2021/10/29 01:25:12;;;;;;;7.57;6.43;;;11.20;99.90;;;;;;5045277;28;20211;-61
2021/10/29 01:27:40;;;;;;;8.00;6.47;;;11.30;99.90;;;;;;5045751;28;20213;-59
2021/10/29 01:30:10;;;;;;;9.17;7.13;;;11.20;99.90;;;;;;5045338;28;20200;-61
2021/10/29 01:32:39;;;;;;;10.53;7.17;;;11.20;99.90;;;;;;5044852;28;20213;-61
2021/10/29 01:35:09;;;;;;;7.67;6.90;;;11.20;99.90;;;;;;5044696;28;20197;-61
2021/10/29 01:37:39;;;;;;;8.03;7.23;;;11.10;99.90;;;;;;5044485;28;20205;-62
2021/10/29 01:40:10;;;;;;;8.57;6.73;;;11.10;99.90;;;;;;5044581;28;20235;-61
2021/10/29 01:42:38;;;;;;;8.93;7.27;;;11.10;99.90;;;;;;5043595;28;20247;-62
2021/10/29 01:45:08;;;;;;;10.63;7.17;;;11.10;99.90;;;;;;5039980;28;20289;-61
2021/10/29 01:47:37;;;;;;;8.27;7.03;;;11.00;99.90;;;;;;5045532;28;20204;-61
2021/10/29 01:50:08;;;;;;;8.70;7.07;;;11.00;99.90;;;;;;5042569;28;20201;-61
2021/10/29 01:52:36;;;;;;;12.37;7.43;;;11.10;99.90;;;;;;5043681;28;20201;-61
2021/10/29 01:55:08;;;;;;;7.83;7.07;;;11.10;99.90;;;;;;5045522;28;20196;-61
2021/10/29 01:57:36;;;;;;;8.33;7.43;;;11.10;99.90;;;;;;5044153;28;20279;-61
2021/10/29 02:00:06;;;;;;;8.70;6.90;;;11.10;99.90;;;;;;5041743;28;20204;-61
2021/10/29 02:02:35;;;;;;;8.90;7.10;;;11.10;99.90;;;;;;5047297;28;20228;-61
2021/10/29 02:05:04;;;;;;;8.13;6.83;;;11.10;99.90;;;;;;5044093;28;20226;-61
2021/10/29 02:07:33;;;;;;;10.97;7.20;;;11.10;99.90;;;;;;5042376;28;20197;-61
2021/10/29 02:10:02;;;;;;;10.07;6.70;;;11.10;99.90;;;;;;5042161;28;20250;-61
2021/10/29 02:12:33;;;;;;;9.23;6.83;;;11.10;99.90;;;;;;5043537;28;20204;-61
2021/10/29 02:15:03;;;;;;;11.47;7.73;;;11.10;99.90;;;;;;5042389;28;20197;-62
2021/10/29 02:17:32;;;;;;;9.87;6.70;;;11.00;99.90;;;;;;5041263;28;20627;-62
2021/10/29 02:20:01;;;;;;;8.23;7.23;;;11.00;99.90;;;;;;5045228;28;20438;-61
2021/10/29 02:22:31;;;;;;;13.70;7.17;;;11.00;99.90;;;;;;5043173;28;20303;-61
2021/10/29 02:25:00;;;;;;;16.93;8.13;;;11.00;99.90;;;;;;5042260;28;20680;-61
2021/10/29 02:27:28;;;;;;;10.67;7.57;;;11.00;99.90;;;;;;5042672;28;20289;-61
2021/10/29 02:29:58;;;;;;;7.60;6.90;;;11.00;99.90;;;;;;5041206;28;20200;-62
2021/10/29 02:32:26;;;;;;;11.77;7.43;;;11.10;99.90;;;;;;5040809;28;20220;-61
2021/10/29 02:34:55;;;;;;;8.93;7.27;;;11.10;99.90;;;;;;5042473;28;20204;-61
2021/10/29 02:37:24;;;;;;;8.63;6.93;;;11.10;99.90;;;;;;5044408;28;20219;-61
2021/10/29 02:39:52;;;;;;;8.73;6.80;;;11.20;99.90;;;;;;5045361;28;20243;-61
2021/10/29 02:42:21;;;;;;;8.03;6.63;;;11.10;99.90;;;;;;5044090;28;20188;-62
2021/10/29 02:44:49;;;;;;;7.33;6.57;;;11.20;99.90;;;;;;5043125;28;20252;-61
2021/10/29 02:47:19;;;;;;;8.63;7.20;;;11.20;99.90;;;;;;5043741;28;20668;-61
2021/10/29 02:49:48;;;;;;;11.63;7.13;;;11.20;99.90;;;;;;5042538;28;20201;-61
2021/10/29 02:52:17;;;;;;;8.33;6.67;;;11.10;99.90;;;;;;5041717;28;20263;-61
2021/10/29 02:54:45;;;;;;;10.60;6.60;;;11.20;99.90;;;;;;5042907;28;20195;-59
2021/10/29 02:57:14;;;;;;;7.07;6.13;;;11.20;99.90;;;;;;5041859;28;20246;-61
2021/10/29 02:59:42;;;;;;;7.30;6.60;;;11.20;99.90;;;;;;5042860;28;21496;-61
2021/10/29 03:02:11;;;;;;;7.60;6.70;;;11.20;99.90;;;;;;5042252;28;20201;-62
2021/10/29 03:04:41;;;;;;;6.90;6.20;;;11.20;99.90;;;;;;5040693;28;20227;-61
2021/10/29 03:07:10;;;;;;;9.00;6.47;;;11.20;99.90;;;;;;5040876;28;20280;-61
2021/10/29 03:09:38;;;;;;;11.30;6.63;;;11.20;99.90;;;;;;5044587;28;20249;-61
2021/10/29 03:12:07;;;;;;;10.80;7.80;;;11.20;99.90;;;;;;5042344;28;20342;-61
2021/10/29 03:14:35;;;;;;;7.53;6.73;;;11.20;99.90;;;;;;5043514;28;20238;-61
2021/10/29 03:17:04;;;;;;;11.17;7.30;;;11.20;99.90;;;;;;5040865;28;20296;-61
2021/10/29 03:19:33;;;;;;;9.40;7.20;;;11.20;99.90;;;;;;5043088;28;20205;-61
2021/10/29 03:22:04;;;;;;;12.57;6.63;;;11.20;99.90;;;;;;5040062;28;20215;-61
2021/10/29 03:24:33;;;;;;;10.30;6.63;;;11.10;99.90;;;;;;5035908;28;20213;-62
2021/10/29 03:27:02;;;;;;;12.13;6.83;;;11.20;99.90;;;;;;5040022;28;20197;-61
2021/10/29 03:29:31;;;;;;;9.13;6.70;;;11.10;99.90;;;;;;5042633;28;20200;-62
2021/10/29 03:31:59;;;;;;;8.30;6.30;;;11.20;99.90;;;;;;5039709;28;20192;-62
2021/10/29 03:34:28;;;;;;;9.37;6.97;;;11.10;99.90;;;;;;5043679;28;20276;-61
2021/10/29 03:36:56;;;;;;;8.60;6.07;;;11.10;99.90;;;;;;5042471;28;20193;-60
2021/10/29 03:39:28;;;;;;;8.27;6.83;;;11.20;99.90;;;;;;5043585;28;20193;-61
2021/10/29 03:41:58;;;;;;;7.73;6.50;;;11.20;99.90;;;;;;5039305;28;20201;-61
2021/10/29 03:44:37;;;;;;;8.43;6.20;;;11.20;99.90;;;;;;5043772;28;20208;-61
2021/10/29 03:47:06;;;;;;;8.67;6.40;;;11.30;99.90;;;;;;5043513;28;20200;-61
2021/10/29 03:49:38;;;;;;;8.70;6.43;;;11.20;99.90;;;;;;5047341;28;20254;-62
2021/10/29 03:52:13;;;;;;;8.53;6.30;;;11.20;99.90;;;;;;5043958;28;20224;-61
2021/10/29 03:54:47;;;;;;;12.57;6.87;;;11.20;99.90;;;;;;5043657;28;20558;-61
2021/10/29 03:57:23;;;;;;;9.27;6.07;;;11.10;99.90;;;;;;5032620;28;20728;-61
2021/10/29 03:59:53;;;;;;;10.27;6.80;;;11.10;99.90;;;;;;5042997;28;20609;-61
2021/10/29 04:02:23;;;;;;;8.50;6.73;;;11.10;99.90;;;;;;5041733;28;20232;-61
2021/10/29 04:04:52;;;;;;;9.70;6.87;;;11.10;99.90;;;;;;5049008;28;20658;-62
2021/10/29 04:07:20;;;;;;;9.50;6.63;;;11.10;99.90;;;;;;5049305;28;20212;-61
2021/10/29 04:09:50;;;;;;;9.93;6.27;;;11.10;99.90;;;;;;5045077;28;20626;-61
2021/10/29 04:12:18;;;;;;;6.73;6.03;;;11.20;99.90;;;;;;5050285;28;20197;-61
2021/10/29 04:14:47;;;;;;;8.57;6.53;;;11.20;99.90;;;;;;5048430;28;20541;-61
2021/10/29 04:17:16;;;;;;;9.57;6.73;;;11.20;99.90;;;;;;5044483;28;20194;-61
2021/10/29 04:19:47;;;;;;;7.17;6.20;;;11.20;99.90;;;;;;5049283;28;20655;-60
2021/10/29 04:22:15;;;;;;;12.63;6.10;;;11.20;99.90;;;;;;5047092;28;20199;-61
2021/10/29 04:24:44;;;;;;;9.97;6.67;;;11.20;99.90;;;;;;5047951;28;20614;-61
2021/10/29 04:27:20;;;;;;;8.17;6.17;;;11.20;99.90;;;;;;5047980;28;20224;-61
2021/10/29 04:29:50;;;;;;;9.07;5.77;;;11.30;99.90;;;;;;5046061;28;20197;-61
2021/10/29 04:32:18;;;;;;;9.30;6.57;;;11.30;99.90;;;;;;5046213;28;20225;-61
2021/10/29 04:34:47;;;;;;;6.40;5.80;;;11.30;99.90;;;;;;5047012;28;20193;-61
2021/10/29 04:37:16;;;;;;;8.27;6.43;;;11.30;99.90;;;;;;5044100;28;20247;-61
2021/10/29 04:39:45;;;;;;;9.53;6.57;;;11.30;99.90;;;;;;5046339;28;20663;-61
2021/10/29 04:42:16;;;;;;;8.53;6.33;;;11.20;99.90;;;;;;5045617;28;20689;-61
2021/10/29 04:44:45;;;;;;;6.47;5.77;;;11.20;99.90;;;;;;5042645;28;20649;-61
2021/10/29 04:47:16;;;;;;;8.23;6.30;;;11.10;99.90;;;;;;5042922;28;20200;-61
2021/10/29 04:49:44;;;;;;;6.60;5.90;;;11.20;99.90;;;;;;5045778;28;20311;-61
2021/10/29 04:52:13;;;;;;;8.07;5.93;;;11.10;99.90;;;;;;5043652;28;20750;-61
2021/10/29 04:54:41;;;;;;;13.53;6.40;;;11.20;99.90;;;;;;5048065;28;20653;-61
2021/10/29 04:57:10;;;;;;;6.70;6.00;;;11.30;99.90;;;;;;5045335;28;20864;-61
2021/10/29 04:59:40;;;;;;;7.37;5.53;;;11.20;99.90;;;;;;5041322;28;20794;-61
2021/10/29 05:02:08;;;;;;;8.93;6.30;;;11.30;99.90;;;;;;5045992;28;20725;-61
2021/10/29 05:04:37;;;;;;;8.00;6.00;;;11.30;99.90;;;;;;5040206;28;20197;-61
2021/10/29 05:07:05;;;;;;;8.93;6.60;;;11.30;99.90;;;;;;5045944;28;20262;-61
2021/10/29 05:09:34;;;;;;;9.73;6.30;;;11.30;99.90;;;;;;5046092;28;20557;-61
2021/10/29 05:12:02;;;;;;;12.00;5.97;;;11.30;99.90;;;;;;5046682;28;20970;-61
2021/10/29 05:14:31;;;;;;;7.77;6.17;;;11.20;99.90;;;;;;5042055;28;20204;-61
2021/10/29 05:17:01;;;;;;;7.60;6.07;;;11.20;99.90;;;;;;5042380;28;20699;-61
2021/10/29 05:19:29;;;;;;;8.90;6.27;;;11.10;99.90;;;;;;5044496;28;20266;-61
2021/10/29 05:21:58;;;;;;;7.93;6.07;;;11.10;99.90;;;;;;5041899;28;20683;-61
2021/10/29 05:24:27;;;;;;;7.70;6.40;;;11.10;99.90;;;;;;5044385;28;20196;-61
2021/10/29 05:26:55;;;;;;;12.17;6.40;;;11.10;99.90;;;;;;5045665;28;20212;-61
2021/10/29 05:29:24;;;;;;;10.47;5.93;;;11.10;99.90;;;;;;5042247;28;20665;-61
2021/10/29 05:31:52;;;;;;;10.03;6.80;;;11.10;99.90;;;;;;5044443;28;20228;-61
2021/10/29 05:34:22;;;;;;;9.93;6.13;;;11.10;99.90;;;;;;5044422;28;20200;-61
2021/10/29 05:36:56;;;;;;;10.80;6.07;;;11.10;99.90;;;;;;5042778;28;20287;-61
2021/10/29 05:39:25;;;;;;;6.67;6.07;;;11.10;99.90;;;;;;5041704;28;20224;-61
2021/10/29 05:41:54;;;;;;;9.07;6.00;;;11.00;99.90;;;;;;5046266;28;20735;-61
2021/10/29 05:44:23;;;;;;;6.93;5.83;;;11.00;99.90;;;;;;5043293;28;20281;-61
2021/10/29 05:46:51;;;;;;;7.83;5.90;;;11.00;99.90;;;;;;5041272;28;20259;-61
2021/10/29 05:49:23;;;;;;;8.87;5.73;;;11.00;99.90;;;;;;5045886;28;20284;-61
2021/10/29 05:51:52;;;;;;;7.13;5.97;;;11.00;99.90;;;;;;5045015;28;20241;-62
2021/10/29 05:57:09;;;;;;;7.03;5.57;;;10.90;99.90;;;;;;5036693;28;20220;-61
2021/10/29 05:59:38;;;;;;;8.67;5.50;;;11.00;99.90;;;;;;5042863;28;20202;-61
2021/10/29 06:02:07;;;;;;;9.37;5.97;;;11.00;99.90;;;;;;5041272;28;20228;-62
2021/10/29 06:04:37;;;;;;;8.40;5.77;;;11.00;99.90;;;;;;5039627;28;20199;-62
2021/10/29 06:07:06;;;;;;;12.53;6.33;;;11.00;99.90;;;;;;5043839;28;20300;-61
2021/10/29 06:09:35;;;;;;;10.53;6.20;;;11.00;99.90;;;;;;5044889;28;20573;-61
2021/10/29 06:12:05;;;;;;;7.83;5.80;;;11.00;99.90;;;;;;5047321;28;20196;-61
2021/10/29 06:14:35;;;;;;;6.17;5.60;;;11.10;99.90;;;;;;5048788;28;20321;-61
2021/10/29 06:17:06;;;;;;;10.00;5.53;;;11.10;99.90;;;;;;5046476;28;20196;-61
2021/10/29 06:19:40;;;;;;;7.30;6.33;;;11.20;99.90;;;;;;5042975;28;20220;-61
2021/10/29 06:22:12;;;;;;;8.60;5.83;;;11.20;99.90;;;;;;5049449;28;20263;-61
2021/10/29 06:24:41;;;;;;;6.03;5.43;;;11.20;99.90;;;;;;5048484;28;20227;-58
2021/10/29 06:28:08;;;;;;;5.83;5.27;;;11.20;99.90;;;;;;5046356;28;20208;-61
2021/10/29 06:29:58;;;;;;;7.63;6.07;;;11.20;99.90;;;;;;5043356;28;20205;-61
2021/10/29 06:32:27;;;;;;;7.13;5.60;;;11.10;99.90;;;;;;5041451;28;20216;-61
2021/10/29 06:34:56;;;;;;;10.10;5.60;;;11.10;99.90;;;;;;5047226;28;20197;-61
2021/10/29 06:37:26;;;;;;;6.03;5.40;;;11.20;99.90;;;;;;5047244;28;20185;-61
2021/10/29 06:39:54;;;;;;;6.03;5.43;;;11.20;99.90;;;;;;5034980;28;20741;-61
2021/10/29 06:42:27;;;;;;;8.07;5.53;;;11.20;99.90;;;;;;5043336;28;20241;-61
2021/10/29 06:45:10;;;;;;;7.57;5.90;;;11.20;99.90;;;;;;5042215;28;20259;-60
2021/10/29 06:47:44;;;;;;;6.57;5.90;;;11.20;99.90;;;;;;5042068;28;20350;-61
2021/10/29 07:01:23;;;;;;;8.17;6.30;;;11.40;99.90;;;;;;5039796;28;20188;-61
2021/10/29 07:39:54;;;;;;;5.90;5.20;;;11.50;99.90;;;;;;5038682;28;20299;-61
2021/10/29 07:40:25;;;;;;;8.23;4.93;;;12.30;99.90;;;;;;5038539;28;20231;-61
2021/10/29 07:42:57;;;;;;;5.77;4.90;;;12.40;99.90;;;;;;5040266;28;20276;-61
2021/10/29 07:45:32;;;;;;;7.63;5.40;;;12.50;99.90;;;;;;5044430;28;20212;-61
2021/10/29 07:48:00;;;;;;;10.93;5.40;;;12.50;99.90;;;;;;5035955;28;20204;-61
2021/10/29 07:50:29;;;;;;;9.17;5.63;;;12.60;99.90;;;;;;5045871;28;20722;-61
2021/10/29 07:52:59;;;;;;;5.33;4.70;;;12.70;99.90;;;;;;5040847;28;20208;-61
2021/10/29 07:55:30;;;;;;;5.23;4.73;;;12.80;99.90;;;;;;5041140;28;20196;-61
2021/10/29 07:58:02;;;;;;;9.43;5.07;;;12.90;99.90;;;;;;5038129;28;20232;-62
2021/10/29 08:00:34;;;;;;;9.93;5.00;;;13.00;99.90;;;;;;5040169;28;20205;-61
2021/10/29 08:03:07;;;;;;;8.97;5.27;;;13.00;99.90;;;;;;5041097;28;20185;-61
2021/10/29 08:05:36;;;;;;;6.90;4.97;;;13.10;99.90;;;;;;5037215;28;20208;-61
2021/10/29 08:08:05;;;;;;;8.13;4.80;;;13.20;99.90;;;;;;5038687;28;20691;-61
2021/10/29 08:10:35;;;;;;;8.83;4.97;;;13.30;99.90;;;;;;5037807;28;20212;-61
2021/10/29 08:13:05;;;;;;;5.57;4.57;;;13.40;99.90;;;;;;5039306;28;20193;-60
2021/10/29 08:15:37;;;;;;;8.70;4.97;;;13.50;99.90;;;;;;5040108;28;20203;-61
2021/10/29 08:18:07;;;;;;;8.83;4.80;;;13.60;99.90;;;;;;5037194;28;20269;-62
2021/10/29 08:20:37;;;;;;;5.40;4.43;;;13.60;99.90;;;;;;5041619;28;20196;-61
2021/10/29 08:23:08;;;;;;;5.17;4.70;;;13.70;99.90;;;;;;5039891;28;20493;-61
2021/10/29 08:25:38;;;;;;;6.33;4.17;;;13.80;99.90;;;;;;5032597;28;20256;-60
2021/10/29 08:28:09;;;;;;;5.03;4.40;;;13.90;99.90;;;;;;5035366;28;20637;-61
2021/10/29 08:30:50;;;;;;;5.07;4.03;;;13.90;99.90;;;;;;5044032;28;20197;-61
2021/10/29 08:33:19;;;;;;;4.77;4.30;;;14.00;99.90;;;;;;5043196;28;20224;-61
2021/10/29 08:35:48;;;;;;;4.90;4.50;;;14.00;99.90;;;;;;5045374;28;20287;-61
2021/10/29 08:38:17;;;;;;;10.57;4.70;;;14.20;99.90;;;;;;5040587;28;20189;-61
2021/10/29 08:40:47;;;;;;;11.43;4.07;;;14.20;99.90;;;;;;5039813;28;20244;-61
2021/10/29 08:43:16;;;;;;;4.93;4.23;;;14.20;99.90;;;;;;5043617;28;20247;-59
2021/10/29 08:45:45;;;;;;;6.70;4.37;;;14.20;99.90;;;;;;5038913;28;20208;-61
2021/10/29 08:48:14;;;;;;;6.60;4.03;;;14.30;99.90;;;;;;5039406;28;20217;-61
2021/10/29 08:50:43;;;;;;;4.87;4.30;;;14.40;99.90;;;;;;5047256;28;20262;-61
2021/10/29 08:53:12;;;;;;;6.07;4.30;;;14.50;99.90;;;;;;5047417;28;20199;-61
2021/10/29 08:55:40;;;;;;;6.53;4.37;;;14.60;99.90;;;;;;5044059;28;20236;-61
2021/10/29 08:58:11;;;;;;;5.97;4.17;;;14.60;99.90;;;;;;5045251;28;20186;-61
2021/10/29 09:00:43;;;;;;;6.67;4.03;;;14.80;99.90;;;;;;5039376;28;20258;-61
2021/10/29 09:03:25;;;;;;;11.80;4.47;;;14.90;99.90;;;;;;5042146;28;20192;-60
2021/10/29 09:06:06;;;;;;;4.73;4.27;;;14.90;99.90;;;;;;5042912;28;20200;-61
2021/10/29 09:08:48;;;;;;;6.67;4.10;;;15.00;99.90;;;;;;5043314;28;20216;-61
2021/10/29 09:11:31;;;;;;;4.50;4.07;;;15.10;99.90;;;;;;5042865;28;20250;-60
2021/10/29 09:17:08;;;;;;;5.20;4.27;;;15.20;99.90;;;;;;5031990;28;20205;-61
2021/10/29 09:31:25;;;;;;;5.93;4.00;;;15.90;99.90;;;;;;5043837;28;20284;-61
2021/10/29 09:33:55;;;;;;;4.87;4.10;;;15.80;99.90;;;;;;5047190;28;20204;-62
2021/10/29 09:36:28;;;;;;;4.80;4.40;;;15.70;99.90;;;;;;5046646;28;20208;-61
2021/10/29 09:38:59;;;;;;;4.10;3.80;;;15.60;99.90;;;;;;5043997;28;20189;-62
2021/10/29 09:41:28;;;;;;;4.23;3.80;;;15.80;99.90;;;;;;5042103;28;20229;-61
2021/10/29 09:44:02;;;;;;;6.70;3.67;;;15.90;99.90;;;;;;5029389;28;20203;-62
2021/10/29 09:46:36;;;;;;;8.67;4.13;;;16.00;99.90;;;;;;5043750;28;20497;-61
2021/10/29 09:49:11;;;;;;;6.33;4.53;;;16.30;99.90;;;;;;5038793;28;20197;-61
2021/10/29 09:51:52;;;;;;;4.87;4.37;;;16.40;99.90;;;;;;5048005;28;20216;-62
2021/10/29 09:54:31;;;;;;;7.17;4.63;;;16.50;99.90;;;;;;5047348;28;20319;-61
2021/10/29 09:57:01;;;;;;;12.97;4.27;;;16.60;99.90;;;;;;5043025;28;20255;-60
2021/10/29 09:59:33;;;;;;;4.87;4.30;;;16.60;99.90;;;;;;5044022;28;20187;-61
2021/10/29 10:02:04;;;;;;;6.20;4.63;;;16.70;99.90;;;;;;5040241;28;20206;-61
2021/10/29 10:04:36;;;;;;;7.47;5.30;;;16.80;99.90;;;;;;5041535;28;20209;-61
2021/10/29 10:07:06;;;;;;;11.30;5.03;;;16.90;99.90;;;;;;5044072;28;20189;-62
2021/10/29 10:09:35;;;;;;;6.80;4.77;;;17.00;99.90;;;;;;5042548;28;20572;-61
2021/10/29 10:12:04;;;;;;;7.47;5.00;;;17.10;99.90;;;;;;5040942;28;20220;-62
2021/10/29 10:14:33;;;;;;;8.47;4.50;;;17.00;99.90;;;;;;5039257;28;20220;-61
2021/10/29 10:17:03;;;;;;;6.77;4.70;;;17.00;99.90;;;;;;5041314;28;20222;-61
2021/10/29 10:19:32;;;;;;;5.23;4.13;;;17.10;99.90;;;;;;5046482;28;20199;-61
2021/10/29 10:22:03;;;;;;;11.83;4.37;;;17.20;99.90;;;;;;5042489;28;20207;-62
2021/10/29 10:24:33;;;;;;;8.47;4.63;;;17.20;99.90;;;;;;5041987;28;20348;-61
2021/10/29 10:30:01;;;;;;;5.43;3.60;;;17.40;99.90;;;;;;5045639;28;20575;-62
2021/10/29 10:41:16;;;;;;;14.73;3.67;;;17.80;99.90;;;;;;5039231;28;20228;-61
2021/10/29 10:44:42;;;;;;;5.80;3.13;;;17.80;99.90;;;;;;5044570;28;20290;-62
2021/10/29 10:47:14;;;;;;;3.93;3.30;;;17.90;99.90;;;;;;5041324;28;20646;-61
2021/10/29 10:49:49;;;;;;;3.20;3.00;;;17.90;99.90;;;;;;5047156;28;20250;-62
2021/10/29 10:52:22;;;;;;;5.37;3.10;;;18.00;99.90;;;;;;5047145;28;20689;-61
2021/10/29 10:54:58;;;;;;;4.40;3.40;;;18.10;99.90;;;;;;5047193;28;20286;-62
2021/10/29 10:57:37;;;;;;;3.27;2.97;;;18.30;99.90;;;;;;5045900;28;20242;-62
2021/10/29 11:00:16;;;;;;;6.27;3.20;;;18.40;99.90;;;;;;5043071;28;20208;-62
2021/10/29 11:06:03;;;;;;;3.00;2.80;;;18.60;99.90;;;;;;5041903;28;20243;-61
2021/10/29 11:11:16;;;;;;;5.10;3.20;;;18.80;99.90;;;;;;5045023;28;20196;-62
2021/10/29 11:13:59;;;;;;;3.20;2.90;;;19.00;99.90;;;;;;5042493;28;20193;-61
2021/10/29 11:16:35;;;;;;;4.17;3.03;;;19.10;99.90;;;;;;5042058;28;20554;-62
2021/10/29 11:19:10;;;;;;;3.50;3.20;;;19.10;99.90;;;;;;5045351;28;20196;-61
2021/10/29 11:21:53;;;;;;;6.73;3.13;;;19.20;99.90;;;;;;5038648;28;20208;-62
2021/10/29 11:24:33;;;;;;;7.13;2.67;;;19.20;99.90;;;;;;5041594;28;20694;-62
2021/10/29 11:27:06;;;;;;;5.70;3.40;;;19.30;99.90;;;;;;5040534;28;20420;-62
2021/10/29 11:29:46;;;;;;;4.07;3.00;;;19.20;99.90;;;;;;5042692;28;20561;-62
2021/10/29 11:32:18;;;;;;;7.80;2.93;;;19.20;99.90;;;;;;5041515;28;20193;-62
2021/10/29 11:34:47;;;;;;;3.63;3.30;;;19.10;99.90;;;;;;5041820;28;20792;-61
2021/10/29 11:37:17;;;;;;;5.83;3.10;;;19.10;99.90;;;;;;5039138;28;20256;-61
2021/10/29 11:39:45;;;;;;;7.97;3.50;;;18.70;99.90;;;;;;5043126;28;20590;-61
2021/10/29 11:42:17;;;;;;;7.23;3.50;;;18.20;99.90;;;;;;5043111;28;20192;-61
2021/10/29 11:44:46;;;;;;;3.30;3.00;;;17.90;99.90;;;;;;5044188;28;20203;-61
2021/10/29 11:47:15;;;;;;;9.63;3.13;;;17.70;99.90;;;;;;5043808;28;20240;-61
2021/10/29 11:49:43;;;;;;;3.73;3.00;;;17.60;99.90;;;;;;5045093;28;20227;-60
2021/10/29 11:52:12;;;;;;;9.57;3.50;;;17.50;99.90;;;;;;5041472;28;20262;-62
2021/10/29 11:54:46;;;;;;;5.27;3.13;;;17.30;99.90;;;;;;5040696;28;20220;-59
2021/10/29 11:57:32;;;;;;;4.37;3.23;;;17.30;99.90;;;;;;5037825;28;20482;-62
2021/10/29 12:00:28;;;;;;;7.33;3.40;;;17.20;99.90;;;;;;5033759;28;20200;-61
2021/10/29 12:05:52;;;;;;;6.63;3.50;;;17.10;99.90;;;;;;5038294;28;20209;-61
2021/10/29 12:08:22;;;;;;;3.90;3.50;;;17.10;99.90;;;;;;5042945;28;20218;-61
2021/10/29 12:10:59;;;;;;;4.27;3.50;;;17.10;99.90;;;;;;5042697;28;20252;-61
2021/10/29 12:13:28;;;;;;;3.90;2.97;;;17.10;99.90;;;;;;5032358;28;20623;-61
2021/10/29 12:15:57;;;;;;;3.37;3.07;;;17.20;99.90;;;;;;5040084;28;20255;-61
2021/10/29 12:18:32;;;;;;;5.40;3.50;;;17.10;99.90;;;;;;5040733;28;20209;-61
2021/10/29 12:21:01;;;;;;;4.30;3.17;;;17.20;99.90;;;;;;5034875;28;20250;-61
2021/10/29 12:23:30;;;;;;;3.87;3.47;;;17.20;99.90;;;;;;5044102;28;20204;-61
2021/10/29 12:26:04;;;;;;;3.57;3.23;;;17.30;99.90;;;;;;5040502;28;20193;-62
2021/10/29 12:28:37;;;;;;;4.27;3.27;;;17.20;99.90;;;;;;5041741;28;20214;-61
2021/10/29 12:31:15;;;;;;;3.43;3.20;;;17.30;99.90;;;;;;5046357;28;20283;-62
2021/10/29 12:37:00;;;;;;;4.50;3.20;;;17.20;99.90;;;;;;5042509;28;20203;-61
2021/10/29 12:59:29;;;;;;;7.87;3.47;;;17.00;99.90;;;;;;5045771;28;20205;-62
2021/10/29 13:01:59;;;;;;;5.73;3.20;;;16.90;99.90;;;;;;5036532;28;20204;-61
2021/10/29 13:04:40;;;;;;;3.73;3.00;;;16.90;99.90;;;;;;5038079;28;20635;-61
2021/10/29 13:07:09;;;;;;;5.30;3.40;;;16.80;99.90;;;;;;5045232;28;20206;-61
2021/10/29 13:09:39;;;;;;;8.30;2.93;;;16.80;99.90;;;;;;5049115;28;20214;-61
2021/10/29 13:12:13;;;;;;;2.90;2.70;;;16.80;99.90;;;;;;5046791;28;20275;-61
2021/10/29 13:14:45;;;;;;;5.93;2.70;;;16.80;99.90;;;;;;5033860;28;20209;-61
2021/10/29 13:17:18;;;;;;;4.53;3.20;;;16.70;99.90;;;;;;5035925;28;20669;-61
2021/10/29 13:20:10;;;;;;;4.80;3.03;;;16.70;99.90;;;;;;5042251;28;20196;-61
2021/10/29 13:28:22;;;;;;;6.83;3.30;;;16.70;99.90;;;;;;5045775;28;20206;-61
2021/10/29 13:36:31;;;;;;;4.50;4.10;;;16.30;99.90;;;;;;5033411;28;20225;-61
2021/10/29 13:55:54;;;;;;;15.80;10.63;;;14.80;99.90;;;;;;5041702;28;20300;-61
2021/10/29 13:58:44;;;;;;;14.33;8.70;;;14.60;99.90;;;;;;5035154;28;20208;-60
2021/10/29 14:01:25;;;;;;;5.57;4.43;;;14.40;99.90;;;;;;5039163;28;20874;-61
2021/10/29 14:29:09;;;;;;;4.00;3.67;;;13.70;99.90;;;;;;5044827;28;20694;-61
2021/10/29 14:31:43;;;;;;;7.10;5.17;;;13.70;99.90;;;;;;5045468;28;20326;-62
2021/10/29 14:34:15;;;;;;;6.43;4.30;;;13.70;99.90;;;;;;5041412;28;20204;-61
2021/10/29 14:36:50;;;;;;;7.67;4.37;;;13.60;99.90;;;;;;5039227;28;20216;-61
2021/10/29 14:39:24;;;;;;;5.13;3.80;;;13.60;99.90;;;;;;5037903;28;20418;-61
2021/10/29 14:42:01;;;;;;;7.60;4.73;;;13.60;99.90;;;;;;5041677;28;20629;-61
2021/10/29 14:44:36;;;;;;;4.50;4.10;;;13.60;99.90;;;;;;5042040;28;20314;-61
2021/10/29 14:47:15;;;;;;;6.00;3.97;;;13.60;99.90;;;;;;5041858;28;20283;-60
2021/10/29 15:03:45;;;;;;;4.53;3.60;;;13.80;99.90;;;;;;5040541;28;20223;-61
2021/10/29 15:06:32;;;;;;;4.10;3.67;;;13.80;99.90;;;;;;5036755;28;20197;-61
2021/10/29 15:15:09;;;;;;;3.33;3.13;;;13.80;99.90;;;;;;5015423;28;20220;-61
2021/10/29 15:17:59;;;;;;;4.63;3.43;;;13.80;99.90;;;;;;5039944;28;20300;-61
2021/10/29 15:29:03;;;;;;;3.70;3.50;;;13.80;99.90;;;;;;5032176;28;20227;-61
2021/10/29 15:31:51;;;;;;;3.77;3.37;;;13.80;99.90;;;;;;5044890;28;20255;-61
2021/10/29 15:42:51;;;;;;;4.67;3.57;;;13.80;99.90;;;;;;5042219;28;20204;-61
2021/10/29 15:45:22;;;;;;;3.83;3.53;;;13.80;99.90;;;;;;5040250;28;20622;-61
2021/10/29 15:48:01;;;;;;;5.47;4.00;;;13.80;99.90;;;;;;5043961;28;20730;-61
2021/10/29 15:50:33;;;;;;;6.13;4.87;;;13.80;99.90;;;;;;5039343;28;20212;-61
2021/10/29 15:53:02;;;;;;;4.40;3.77;;;13.80;99.90;;;;;;5036582;28;20655;-61
2021/10/29 15:55:37;;;;;;;4.70;4.20;;;13.80;99.90;;;;;;5040077;28;20224;-60
2021/10/29 15:58:31;;;;;;;5.50;5.07;;;13.80;99.90;;;;;;5048335;28;20602;-61
2021/10/29 16:01:06;;;;;;;7.07;6.43;;;13.80;99.90;;;;;;5040331;28;20609;-61
2021/10/29 16:03:43;;;;;;;4.97;4.57;;;13.80;99.90;;;;;;5038146;28;20212;-59
2021/10/29 16:17:24;;;;;;;7.07;4.00;;;13.70;99.90;;;;;;5043894;28;20207;-61
2021/10/29 16:19:53;;;;;;;5.53;4.43;;;13.70;99.90;;;;;;5044007;28;20189;-61
2021/10/29 16:22:23;;;;;;;4.70;4.30;;;13.70;99.90;;;;;;5046143;28;20268;-61
2021/10/29 16:24:55;;;;;;;4.73;4.23;;;13.60;99.90;;;;;;5043675;28;20279;-61
2021/10/29 16:27:27;;;;;;;4.10;3.80;;;13.60;99.90;;;;;;5045039;28;20256;-61
2021/10/29 16:29:56;;;;;;;4.80;4.30;;;13.60;99.90;;;;;;5044950;28;20221;-61
2021/10/29 16:32:29;;;;;;;5.27;4.20;;;13.60;99.90;;;;;;5038859;28;20196;-61
2021/10/29 16:34:58;;;;;;;6.07;4.70;;;13.70;99.90;;;;;;5043375;28;20231;-60